Time;durP1;ratioP1;P1;durP2;ratioP2;P2;SDS_P1;SDS_P2;PMS_P1;PMS_P2;Temp;Humidity;BMP_temperature;BMP_pressure;BME280_temperature;BME280_humidity;BME280_pressure;Samples;Min_cycle;Max_cycle;Signal;HPM_P1;HPM_P2
2023/01/21 00:02:13;;;;;;;27.07;17.43;;;1.10;99.90;;;;;;5012672;28;20523;-74
2023/01/21 00:04:38;;;;;;;26.63;19.43;;;1.00;99.90;;;;;;5036073;28;20231;-75
2023/01/21 00:07:05;;;;;;;29.67;19.07;;;1.20;99.90;;;;;;5014348;28;20785;-74
2023/01/21 00:09:31;;;;;;;27.17;18.67;;;1.10;99.90;;;;;;5012611;28;20186;-74
2023/01/21 00:12:01;;;;;;;28.50;18.93;;;1.20;99.90;;;;;;5030333;28;20909;-75
2023/01/21 00:14:27;;;;;;;26.63;19.07;;;1.10;99.90;;;;;;5009039;28;20429;-74
2023/01/21 00:16:53;;;;;;;29.97;19.43;;;1.10;99.90;;;;;;5029924;28;20417;-74
2023/01/21 00:19:19;;;;;;;26.40;18.57;;;1.00;99.90;;;;;;5008564;28;20815;-73
2023/01/21 00:21:44;;;;;;;28.67;19.20;;;1.00;99.90;;;;;;5029904;28;20193;-74
2023/01/21 00:24:10;;;;;;;28.13;19.10;;;0.90;99.90;;;;;;5029739;28;20210;-73
2023/01/21 00:26:35;;;;;;;28.30;19.00;;;0.90;99.90;;;;;;4990023;28;20593;-74
2023/01/21 00:29:01;;;;;;;27.43;18.60;;;0.90;99.90;;;;;;5006972;28;20286;-74
2023/01/21 00:31:27;;;;;;;28.90;18.70;;;1.00;99.90;;;;;;5034813;28;20233;-74
2023/01/21 00:33:52;;;;;;;32.27;19.50;;;1.10;99.90;;;;;;5001968;28;20207;-74
2023/01/21 00:36:20;;;;;;;30.13;19.53;;;0.90;99.90;;;;;;5025677;28;20261;-74
2023/01/21 00:38:47;;;;;;;30.47;20.40;;;1.10;99.90;;;;;;5029442;28;20569;-75
2023/01/21 00:41:13;;;;;;;29.13;19.27;;;0.90;99.90;;;;;;5029333;28;20917;-75
2023/01/21 00:43:40;;;;;;;28.20;18.17;;;1.10;99.90;;;;;;5029423;28;20453;-74
2023/01/21 00:46:06;;;;;;;26.27;19.63;;;0.90;99.90;;;;;;5007834;28;20195;-73
2023/01/21 00:48:32;;;;;;;27.60;18.93;;;0.90;99.90;;;;;;5027037;28;20449;-74
2023/01/21 00:50:59;;;;;;;29.00;19.63;;;1.10;99.90;;;;;;5029286;28;20932;-74
2023/01/21 00:53:33;;;;;;;32.40;20.53;;;0.90;99.90;;;;;;5029636;28;20205;-74
2023/01/21 00:56:07;;;;;;;32.63;20.10;;;0.90;99.90;;;;;;5028993;28;20412;-74
2023/01/21 00:58:33;;;;;;;32.47;20.00;;;0.90;99.90;;;;;;5029408;28;20883;-76
2023/01/21 01:01:04;;;;;;;26.27;20.40;;;0.90;99.90;;;;;;5010125;28;20731;-74
2023/01/21 01:03:30;;;;;;;31.33;20.50;;;0.90;99.90;;;;;;5041752;28;20506;-75
2023/01/21 01:06:05;;;;;;;28.00;19.50;;;0.90;99.90;;;;;;5029261;28;20586;-74
2023/01/21 01:08:31;;;;;;;33.43;20.57;;;1.10;99.90;;;;;;5024239;28;20417;-74
2023/01/21 01:10:57;;;;;;;30.07;20.00;;;0.90;99.90;;;;;;5029192;28;20452;-75
2023/01/21 01:13:22;;;;;;;29.90;20.53;;;1.00;99.90;;;;;;5029280;28;20961;-74
2023/01/21 01:15:51;;;;;;;29.53;19.97;;;0.80;99.90;;;;;;5010543;28;20178;-74
2023/01/21 01:18:17;;;;;;;29.50;20.23;;;0.80;99.90;;;;;;5028868;28;20178;-74
2023/01/21 01:20:43;;;;;;;29.57;20.07;;;0.80;99.90;;;;;;5029136;28;20893;-74
2023/01/21 01:23:09;;;;;;;29.10;19.50;;;0.80;99.90;;;;;;5029231;28;20433;-74
2023/01/21 01:25:36;;;;;;;32.37;19.80;;;0.70;99.90;;;;;;5029104;28;20392;-74
2023/01/21 01:28:03;;;;;;;33.40;19.37;;;0.80;99.90;;;;;;5028871;28;20416;-74
2023/01/21 01:30:29;;;;;;;33.20;20.93;;;0.90;99.90;;;;;;5029109;28;20395;-76
2023/01/21 01:32:54;;;;;;;33.03;20.07;;;0.70;99.90;;;;;;5011527;28;20441;-75
2023/01/21 01:35:20;;;;;;;31.03;19.60;;;0.70;99.90;;;;;;5028837;28;20178;-75
2023/01/21 01:37:46;;;;;;;31.60;19.53;;;0.60;99.90;;;;;;5028890;28;20185;-75
2023/01/21 01:40:12;;;;;;;31.07;20.77;;;0.70;99.90;;;;;;5028747;28;20464;-75
2023/01/21 01:42:38;;;;;;;33.90;20.07;;;0.70;99.90;;;;;;5028852;28;20661;-74
2023/01/21 01:45:15;;;;;;;34.20;21.07;;;0.70;99.90;;;;;;5028753;28;20496;-74
2023/01/21 01:48:00;;;;;;;29.30;20.03;;;0.60;99.90;;;;;;5028756;28;20253;-74
2023/01/21 01:50:36;;;;;;;32.77;20.93;;;0.80;99.90;;;;;;5028982;28;20764;-74
2023/01/21 01:53:02;;;;;;;30.83;20.73;;;0.80;99.90;;;;;;5021205;28;20429;-75
2023/01/21 01:55:34;;;;;;;31.10;19.37;;;0.70;99.90;;;;;;5028639;28;20499;-75
2023/01/21 01:58:04;;;;;;;32.50;20.47;;;0.70;99.90;;;;;;5028657;28;20896;-75
2023/01/21 02:00:29;;;;;;;28.43;19.60;;;0.70;99.90;;;;;;5024692;28;20465;-74
2023/01/21 02:05:41;;;;;;;31.87;20.07;;;0.60;99.90;;;;;;5028556;28;20539;-76
2023/01/21 02:08:08;;;;;;;30.47;19.27;;;0.40;99.90;;;;;;5031399;28;20913;-74
2023/01/21 02:10:35;;;;;;;31.20;21.77;;;0.50;99.90;;;;;;5032563;28;20409;-74
2023/01/21 02:13:02;;;;;;;33.70;20.93;;;0.50;99.90;;;;;;5032931;28;20451;-75
2023/01/21 02:15:39;;;;;;;31.87;19.57;;;0.50;99.90;;;;;;5031753;28;20510;-74
2023/01/21 02:18:23;;;;;;;27.17;19.60;;;0.60;99.90;;;;;;5008654;28;20507;-75
2023/01/21 02:21:14;;;;;;;30.37;19.93;;;0.50;99.90;;;;;;5032548;28;20804;-75
2023/01/21 02:23:59;;;;;;;29.97;19.13;;;0.40;99.90;;;;;;4993559;28;20468;-74
2023/01/21 02:27:03;;;;;;;37.20;22.17;;;0.50;99.90;;;;;;5032659;28;20501;-73
2023/01/21 02:30:05;;;;;;;30.40;19.80;;;0.50;99.90;;;;;;5012127;28;20399;-74
2023/01/21 02:33:15;;;;;;;32.40;20.60;;;0.50;99.90;;;;;;5032313;28;20542;-75
2023/01/21 02:36:01;;;;;;;30.23;19.30;;;0.30;99.90;;;;;;4985220;28;20427;-75
2023/01/21 02:38:58;;;;;;;32.17;19.03;;;0.50;99.90;;;;;;5014271;28;20405;-75
2023/01/21 02:41:40;;;;;;;34.20;20.20;;;0.30;99.90;;;;;;5012343;28;20400;-75
2023/01/21 02:44:13;;;;;;;31.10;19.37;;;0.50;99.90;;;;;;5006067;28;20449;-75
2023/01/21 02:47:09;;;;;;;34.60;19.83;;;0.50;99.90;;;;;;5012413;28;20413;-75
2023/01/21 02:50:03;;;;;;;30.10;20.00;;;0.50;99.90;;;;;;5012223;28;20468;-74
2023/01/21 02:52:29;;;;;;;34.40;20.87;;;0.50;99.90;;;;;;5009353;28;20553;-74
2023/01/21 02:54:59;;;;;;;36.50;21.97;;;0.50;99.90;;;;;;4994305;28;20497;-75
2023/01/21 02:57:38;;;;;;;32.07;20.87;;;0.30;99.90;;;;;;4978080;28;20414;-75
2023/01/21 03:00:14;;;;;;;32.17;20.27;;;0.30;99.90;;;;;;5010591;28;20457;-75
2023/01/21 03:03:08;;;;;;;28.13;19.53;;;0.50;99.90;;;;;;4994536;28;20413;-75
2023/01/21 03:05:47;;;;;;;31.10;19.93;;;0.40;99.90;;;;;;4994379;28;20457;-75
2023/01/21 03:08:21;;;;;;;31.00;18.97;;;0.50;99.90;;;;;;5011613;28;20388;-75
2023/01/21 03:11:06;;;;;;;31.00;20.73;;;0.40;99.90;;;;;;4994146;28;20401;-75
2023/01/21 03:19:16;;;;;;;30.60;19.13;;;0.30;99.90;;;;;;5006611;28;20934;-75
2023/01/21 03:21:42;;;;;;;31.90;20.03;;;0.50;99.90;;;;;;5011748;28;20496;-74
2023/01/21 03:24:10;;;;;;;31.10;19.50;;;0.50;99.90;;;;;;4993795;28;20419;-75
2023/01/21 03:26:40;;;;;;;32.47;19.90;;;0.50;99.90;;;;;;5011830;28;20560;-74
2023/01/21 03:29:09;;;;;;;33.20;19.90;;;0.30;99.90;;;;;;4993838;28;20512;-74
2023/01/21 03:31:38;;;;;;;28.63;19.80;;;0.50;99.90;;;;;;4995378;28;20426;-74
2023/01/21 03:34:07;;;;;;;32.23;20.37;;;0.40;99.90;;;;;;5030772;28;20536;-74
2023/01/21 03:36:51;;;;;;;34.43;22.50;;;0.50;99.90;;;;;;5031345;28;20504;-74
2023/01/21 03:39:44;;;;;;;31.17;20.77;;;0.40;99.90;;;;;;5013110;28;20898;-75
2023/01/21 03:42:12;;;;;;;31.17;20.50;;;0.40;99.90;;;;;;5024494;28;20511;-75
2023/01/21 03:44:38;;;;;;;31.00;20.20;;;0.30;99.90;;;;;;5030719;28;20555;-75
2023/01/21 03:47:06;;;;;;;33.90;20.40;;;0.40;99.90;;;;;;5030814;28;20413;-75
2023/01/21 03:49:43;;;;;;;29.37;19.90;;;0.40;99.90;;;;;;5027186;28;20417;-75
2023/01/21 03:52:12;;;;;;;31.93;20.20;;;0.30;99.90;;;;;;5031162;28;20467;-74
2023/01/21 03:54:38;;;;;;;31.73;20.13;;;0.30;99.90;;;;;;5030629;28;20413;-73
2023/01/21 03:57:04;;;;;;;31.63;19.47;;;0.30;99.90;;;;;;5023126;28;20510;-75
2023/01/21 03:59:30;;;;;;;32.97;20.90;;;0.40;99.90;;;;;;5030487;28;21004;-74
2023/01/21 04:01:55;;;;;;;35.83;22.27;;;0.20;99.90;;;;;;5030799;28;20588;-74
2023/01/21 04:04:21;;;;;;;35.07;20.23;;;0.40;99.90;;;;;;5025474;28;20551;-75
2023/01/21 04:06:46;;;;;;;33.33;19.87;;;0.40;99.90;;;;;;5030549;28;20194;-74
2023/01/21 04:09:12;;;;;;;28.13;18.70;;;0.20;99.90;;;;;;5024349;28;20193;-74
2023/01/21 04:11:38;;;;;;;31.47;19.73;;;0.40;99.90;;;;;;5029012;28;20178;-75
2023/01/21 04:14:03;;;;;;;31.57;19.70;;;0.30;99.90;;;;;;5029714;28;20288;-75
2023/01/21 04:16:29;;;;;;;30.87;21.50;;;0.30;99.90;;;;;;5026644;28;20182;-74
2023/01/21 04:18:54;;;;;;;31.40;19.70;;;0.20;99.90;;;;;;5030220;28;20252;-73
2023/01/21 04:21:20;;;;;;;32.03;19.97;;;0.20;99.90;;;;;;5030256;28;20174;-75
2023/01/21 04:23:46;;;;;;;30.17;19.97;;;0.20;99.90;;;;;;5029981;28;20654;-74
2023/01/21 04:26:11;;;;;;;32.20;19.60;;;0.10;99.90;;;;;;5024088;28;20190;-74
2023/01/21 04:28:37;;;;;;;29.47;19.00;;;0.10;99.90;;;;;;5029996;28;20201;-74
2023/01/21 04:31:02;;;;;;;30.00;19.13;;;0.10;99.90;;;;;;5029339;28;20258;-73
2023/01/21 04:33:29;;;;;;;28.60;19.57;;;0.30;99.90;;;;;;5029761;28;20197;-75
2023/01/21 04:35:59;;;;;;;32.70;20.77;;;0.20;99.90;;;;;;5012231;28;20174;-74
2023/01/21 04:38:24;;;;;;;26.50;18.83;;;0.00;99.90;;;;;;5011959;28;20428;-74
2023/01/21 04:40:50;;;;;;;30.90;19.17;;;-0.10;99.90;;;;;;5020412;28;20781;-75
2023/01/21 04:43:16;;;;;;;30.23;19.80;;;0.10;99.90;;;;;;5046431;23;20229;-76
2023/01/21 04:45:42;;;;;;;29.43;19.60;;;0.10;99.90;;;;;;5031362;28;20661;-75
2023/01/21 04:48:07;;;;;;;31.07;19.90;;;0.10;99.90;;;;;;5030658;28;20730;-75
2023/01/21 04:50:33;;;;;;;32.30;19.40;;;-0.10;99.90;;;;;;5013239;28;20585;-75
2023/01/21 04:52:59;;;;;;;32.00;20.50;;;0.00;99.90;;;;;;5030797;28;20225;-75
2023/01/21 04:55:24;;;;;;;31.13;20.30;;;0.00;99.90;;;;;;5013179;28;20186;-76
2023/01/21 04:57:50;;;;;;;31.53;20.27;;;0.20;99.90;;;;;;5029759;28;20213;-76
2023/01/21 05:00:16;;;;;;;28.50;19.90;;;0.10;99.90;;;;;;5012910;28;20252;-76
2023/01/21 05:02:42;;;;;;;34.77;20.17;;;0.10;99.90;;;;;;5013173;28;20190;-75
2023/01/21 05:05:07;;;;;;;31.33;20.97;;;-0.20;99.90;;;;;;4996594;28;20420;-76
2023/01/21 05:07:33;;;;;;;31.97;20.47;;;0.20;99.90;;;;;;5012936;28;20273;-77
2023/01/21 05:09:59;;;;;;;30.67;19.07;;;-0.10;99.90;;;;;;5030559;28;20417;-76
2023/01/21 05:12:25;;;;;;;31.23;20.50;;;-0.10;99.90;;;;;;5013226;28;20182;-76
2023/01/21 05:14:56;;;;;;;27.93;18.57;;;0.10;99.90;;;;;;5029799;28;20196;-75
2023/01/21 05:17:22;;;;;;;30.10;19.57;;;-0.10;99.90;;;;;;5030471;28;20428;-75
2023/01/21 05:19:49;;;;;;;31.93;19.93;;;0.20;99.90;;;;;;5030404;28;20543;-76
2023/01/21 05:22:16;;;;;;;31.90;20.17;;;0.20;99.90;;;;;;4996822;28;20848;-75
2023/01/21 05:24:41;;;;;;;34.17;20.37;;;0.10;99.90;;;;;;5030487;28;20489;-75
2023/01/21 05:27:07;;;;;;;30.80;20.53;;;0.20;99.90;;;;;;5013064;28;20467;-75
2023/01/21 05:29:33;;;;;;;30.93;20.00;;;-0.10;99.90;;;;;;5012833;28;20651;-75
2023/01/21 05:31:58;;;;;;;28.50;19.43;;;0.10;99.90;;;;;;5013366;28;20252;-75
2023/01/21 05:34:24;;;;;;;29.70;19.70;;;0.20;99.90;;;;;;4996336;28;20194;-75
2023/01/21 05:36:49;;;;;;;28.47;19.10;;;0.10;99.90;;;;;;4996606;28;20178;-75
2023/01/21 05:39:15;;;;;;;36.43;21.93;;;0.10;99.90;;;;;;5012682;28;20209;-75
2023/01/21 05:41:41;;;;;;;28.53;19.20;;;0.00;99.90;;;;;;5030830;28;20225;-75
2023/01/21 05:44:08;;;;;;;30.47;20.60;;;0.00;99.90;;;;;;5012666;28;20284;-76
2023/01/21 05:46:34;;;;;;;34.47;19.50;;;0.00;99.90;;;;;;5013145;28;20649;-75
2023/01/21 05:48:59;;;;;;;33.83;21.27;;;0.10;99.90;;;;;;5030349;28;20459;-75
2023/01/21 05:51:25;;;;;;;38.87;21.53;;;0.10;99.90;;;;;;4996375;28;20895;-75
2023/01/21 05:53:51;;;;;;;33.57;19.90;;;0.00;99.90;;;;;;5030529;28;20214;-75
2023/01/21 05:56:16;;;;;;;33.43;20.27;;;0.10;99.90;;;;;;5030736;28;20194;-75
2023/01/21 05:58:42;;;;;;;30.30;19.50;;;-0.10;99.90;;;;;;5012906;28;20665;-75
2023/01/21 06:01:07;;;;;;;34.27;19.87;;;-0.20;99.90;;;;;;5030581;28;20173;-76
2023/01/21 06:03:34;;;;;;;33.47;20.57;;;-0.10;99.90;;;;;;5013031;28;20198;-75
2023/01/21 06:06:00;;;;;;;34.50;21.97;;;-0.10;99.90;;;;;;4996673;28;20244;-75
2023/01/21 06:08:25;;;;;;;34.40;21.17;;;0.00;99.90;;;;;;5012782;28;20449;-75
2023/01/21 06:10:55;;;;;;;30.80;20.50;;;0.00;99.90;;;;;;5030557;28;20228;-76
2023/01/21 06:13:21;;;;;;;32.37;21.43;;;-0.30;99.90;;;;;;5013173;28;20277;-75
2023/01/21 06:15:46;;;;;;;32.27;20.40;;;-0.20;99.90;;;;;;5030131;28;20405;-75
2023/01/21 06:18:12;;;;;;;30.77;19.97;;;0.00;99.90;;;;;;5013160;28;20413;-75
2023/01/21 06:20:38;;;;;;;27.67;18.80;;;-0.30;99.90;;;;;;5012676;28;20213;-75
2023/01/21 06:23:04;;;;;;;26.70;19.00;;;0.10;99.90;;;;;;5030855;28;20419;-76
2023/01/21 06:25:30;;;;;;;33.77;21.83;;;-0.10;99.90;;;;;;5012999;28;20182;-76
2023/01/21 06:27:56;;;;;;;30.83;21.00;;;0.00;99.90;;;;;;5030575;28;20391;-75
2023/01/21 06:30:24;;;;;;;30.67;20.67;;;-0.20;99.90;;;;;;4996585;28;20413;-75
2023/01/21 06:32:50;;;;;;;33.37;20.17;;;-0.20;99.90;;;;;;5015261;28;20515;-75
2023/01/21 06:35:16;;;;;;;31.20;20.60;;;-0.20;99.90;;;;;;5016916;28;20391;-75
2023/01/21 06:37:43;;;;;;;30.70;20.00;;;-0.30;99.90;;;;;;5044813;28;20824;-76
2023/01/21 06:40:10;;;;;;;30.63;19.53;;;0.00;99.90;;;;;;5050309;28;20521;-76
2023/01/21 06:42:36;;;;;;;28.90;19.33;;;-0.20;99.90;;;;;;5050392;28;20460;-75
2023/01/21 06:45:02;;;;;;;30.33;19.67;;;-0.20;99.90;;;;;;5016075;28;20387;-75
2023/01/21 06:47:27;;;;;;;32.23;20.03;;;-0.10;99.90;;;;;;5050313;28;20536;-76
2023/01/21 06:49:53;;;;;;;34.30;21.73;;;-0.10;99.90;;;;;;5049958;28;20269;-75
2023/01/21 06:52:19;;;;;;;35.60;22.60;;;0.00;99.90;;;;;;5032511;28;20180;-75
2023/01/21 06:54:44;;;;;;;36.30;22.67;;;-0.10;99.90;;;;;;5019569;28;20198;-75
2023/01/21 06:57:10;;;;;;;29.10;20.80;;;-0.30;99.90;;;;;;5036051;28;20214;-76
2023/01/21 06:59:36;;;;;;;33.17;20.40;;;-0.30;99.90;;;;;;5019639;28;20201;-75
2023/01/21 07:02:02;;;;;;;32.23;22.10;;;-0.20;99.90;;;;;;5020497;28;20427;-76
2023/01/21 07:04:28;;;;;;;30.33;20.63;;;0.00;99.90;;;;;;5036167;28;20190;-75
2023/01/21 07:06:54;;;;;;;30.40;19.83;;;0.00;99.90;;;;;;5054023;28;20503;-76
2023/01/21 07:09:19;;;;;;;33.60;21.17;;;-0.20;99.90;;;;;;5054214;28;20189;-76
2023/01/21 07:11:45;;;;;;;31.67;20.53;;;-0.30;99.90;;;;;;5038843;28;20673;-75
2023/01/21 07:14:11;;;;;;;33.47;21.57;;;-0.10;99.90;;;;;;4997400;28;20779;-76
2023/01/21 07:16:37;;;;;;;29.30;20.27;;;-0.10;99.90;;;;;;5033890;28;20418;-76
2023/01/21 07:19:03;;;;;;;33.60;20.57;;;-0.20;99.90;;;;;;5021287;28;20194;-76
2023/01/21 07:21:28;;;;;;;35.83;22.10;;;-0.30;99.90;;;;;;5014547;28;20410;-76
2023/01/21 07:23:55;;;;;;;35.37;21.67;;;-0.10;99.90;;;;;;5014941;28;20455;-76
2023/01/21 07:26:21;;;;;;;31.73;20.83;;;-0.10;99.90;;;;;;5019198;28;20625;-76
2023/01/21 07:28:47;;;;;;;33.97;20.57;;;-0.10;99.90;;;;;;5046323;28;20832;-76
2023/01/21 07:31:13;;;;;;;33.97;21.60;;;-0.10;99.90;;;;;;5035769;28;20422;-76
2023/01/21 07:33:39;;;;;;;33.23;21.47;;;0.10;99.90;;;;;;5015789;28;20212;-76
2023/01/21 07:36:05;;;;;;;32.80;21.57;;;-0.20;99.90;;;;;;4999553;28;20236;-76
2023/01/21 07:38:31;;;;;;;33.20;21.70;;;0.10;99.90;;;;;;5015573;28;20467;-75
2023/01/21 07:40:57;;;;;;;33.43;21.87;;;0.10;99.90;;;;;;5013583;28;20928;-75
2023/01/21 07:43:22;;;;;;;35.30;20.37;;;0.10;99.90;;;;;;5035675;28;20259;-76
2023/01/21 07:45:48;;;;;;;35.60;22.30;;;0.20;99.90;;;;;;5022847;28;20273;-75
2023/01/21 07:48:14;;;;;;;33.33;21.50;;;0.10;99.90;;;;;;5041099;28;20182;-76
2023/01/21 07:50:39;;;;;;;32.60;22.53;;;0.20;99.90;;;;;;5036290;28;20239;-76
2023/01/21 07:53:05;;;;;;;38.40;22.40;;;0.00;99.90;;;;;;5015990;28;20230;-76
2023/01/21 07:55:31;;;;;;;32.77;20.40;;;-0.10;99.90;;;;;;5039716;28;20286;-76
2023/01/21 07:57:57;;;;;;;32.93;20.93;;;0.10;99.90;;;;;;5023436;28;20273;-76
2023/01/21 08:00:25;;;;;;;32.13;20.97;;;0.10;99.90;;;;;;5048171;28;20225;-76
2023/01/21 08:02:55;;;;;;;31.50;20.50;;;0.10;99.90;;;;;;5043400;28;20445;-76
2023/01/21 08:05:22;;;;;;;35.70;22.97;;;0.20;99.90;;;;;;5016780;28;20456;-75
2023/01/21 08:07:48;;;;;;;34.37;22.20;;;0.20;99.90;;;;;;5014965;28;20400;-76
2023/01/21 08:10:15;;;;;;;35.40;21.60;;;0.20;99.90;;;;;;5032906;28;20930;-76
2023/01/21 08:12:41;;;;;;;33.23;22.10;;;0.30;99.90;;;;;;5014972;28;20449;-76
2023/01/21 08:15:07;;;;;;;39.37;23.60;;;0.30;99.90;;;;;;5032291;28;20749;-76
2023/01/21 08:17:36;;;;;;;40.97;23.03;;;0.30;99.90;;;;;;5015339;28;20391;-76
2023/01/21 08:20:01;;;;;;;31.97;21.57;;;0.30;99.90;;;;;;5040506;28;20454;-76
2023/01/21 08:22:27;;;;;;;33.07;20.70;;;0.20;99.90;;;;;;5002760;28;21020;-76
2023/01/21 08:24:52;;;;;;;39.53;23.10;;;0.20;99.90;;;;;;5014910;28;20180;-76
2023/01/21 08:27:18;;;;;;;37.80;22.87;;;0.30;99.90;;;;;;5009426;28;20197;-76
2023/01/21 08:29:44;;;;;;;34.43;22.37;;;0.30;99.90;;;;;;5034931;28;20182;-75
2023/01/21 08:32:09;;;;;;;33.33;21.47;;;0.30;99.90;;;;;;5052444;28;20178;-76
2023/01/21 08:34:35;;;;;;;36.20;22.10;;;0.50;99.90;;;;;;5052621;28;20227;-76
2023/01/21 08:37:00;;;;;;;36.90;22.67;;;0.40;99.90;;;;;;5052297;28;20194;-76
2023/01/21 08:39:26;;;;;;;33.90;23.83;;;0.50;99.90;;;;;;5052031;28;20347;-76
2023/01/21 08:41:52;;;;;;;33.37;22.50;;;0.50;99.90;;;;;;5052794;28;20280;-75
2023/01/21 08:44:17;;;;;;;31.93;21.80;;;0.60;99.90;;;;;;5034339;28;20216;-75
2023/01/21 08:46:43;;;;;;;32.00;22.37;;;0.60;99.90;;;;;;5052808;28;20227;-76
2023/01/21 08:49:09;;;;;;;33.20;22.00;;;0.40;99.90;;;;;;5034427;28;20181;-76
2023/01/21 08:51:34;;;;;;;35.83;22.10;;;0.60;99.90;;;;;;5051751;28;20209;-76
2023/01/21 08:54:00;;;;;;;32.90;21.40;;;0.60;99.90;;;;;;5021677;28;20237;-76
2023/01/21 08:56:26;;;;;;;33.43;22.33;;;0.50;99.90;;;;;;5031149;28;20175;-76
2023/01/21 08:58:56;;;;;;;36.10;21.90;;;0.50;99.90;;;;;;4997508;28;20450;-76
2023/01/21 09:01:23;;;;;;;32.60;23.13;;;0.50;99.90;;;;;;5031507;28;20178;-74
2023/01/21 09:03:52;;;;;;;31.70;21.07;;;0.70;99.90;;;;;;5031123;28;20433;-76
2023/01/21 09:06:18;;;;;;;34.50;21.83;;;0.70;99.90;;;;;;5013475;28;20420;-76
2023/01/21 09:08:44;;;;;;;35.50;20.67;;;0.60;99.90;;;;;;5031108;28;20496;-76
2023/01/21 09:11:10;;;;;;;35.90;20.53;;;0.70;99.90;;;;;;5012941;28;20182;-76
2023/01/21 09:13:37;;;;;;;31.17;22.33;;;0.80;99.90;;;;;;5030306;28;20190;-75
2023/01/21 09:16:17;;;;;;;33.13;21.70;;;0.70;99.90;;;;;;5030200;28;20409;-75
2023/01/21 09:18:43;;;;;;;33.20;21.27;;;0.70;99.90;;;;;;5012317;28;20421;-75
2023/01/21 09:21:10;;;;;;;32.23;20.37;;;1.00;99.90;;;;;;5012686;28;20406;-75
2023/01/21 09:23:37;;;;;;;37.17;22.07;;;0.80;99.90;;;;;;5012294;28;20437;-75
2023/01/21 09:26:15;;;;;;;30.50;19.60;;;0.90;99.90;;;;;;5030369;28;20413;-76
2023/01/21 09:28:42;;;;;;;30.90;20.17;;;0.90;99.90;;;;;;4996031;28;20494;-76
2023/01/21 09:31:14;;;;;;;35.10;20.43;;;0.80;99.90;;;;;;5012945;28;20413;-75
2023/01/21 09:33:42;;;;;;;34.67;21.00;;;0.80;99.90;;;;;;5012450;28;20437;-75
2023/01/21 09:36:13;;;;;;;28.67;18.57;;;0.80;99.90;;;;;;5030577;28;20417;-75
2023/01/21 09:38:41;;;;;;;30.67;20.70;;;0.70;99.90;;;;;;5012441;28;20384;-76
2023/01/21 09:41:37;;;;;;;32.90;20.33;;;0.80;99.90;;;;;;5030206;28;20450;-76
2023/01/21 09:44:34;;;;;;;34.30;21.30;;;1.00;99.90;;;;;;5012358;28;20468;-76
2023/01/21 09:47:24;;;;;;;32.47;20.20;;;0.90;99.90;;;;;;5030311;28;20420;-75
2023/01/21 09:49:51;;;;;;;32.13;20.20;;;1.20;99.90;;;;;;5012767;28;20834;-74
2023/01/21 09:52:20;;;;;;;33.60;19.70;;;1.20;99.90;;;;;;5012803;28;21177;-75
2023/01/21 09:54:45;;;;;;;33.10;20.47;;;1.00;99.90;;;;;;5030223;28;20413;-76
2023/01/21 09:57:14;;;;;;;32.97;20.80;;;1.30;99.90;;;;;;5012388;28;20413;-76
2023/01/21 09:59:45;;;;;;;33.40;19.10;;;1.30;99.90;;;;;;5012209;28;20198;-76
2023/01/21 10:02:23;;;;;;;30.30;20.33;;;1.30;99.90;;;;;;5025120;28;20493;-75
2023/01/21 10:05:10;;;;;;;28.60;18.80;;;1.20;99.90;;;;;;5012457;28;20489;-75
2023/01/21 10:08:03;;;;;;;31.17;21.10;;;1.30;99.90;;;;;;5008955;28;20783;-76
2023/01/21 10:10:41;;;;;;;32.73;20.17;;;1.50;99.90;;;;;;4993025;28;21071;-76
2023/01/21 10:13:36;;;;;;;33.67;21.67;;;1.50;99.90;;;;;;4977036;28;20442;-75
2023/01/21 10:16:27;;;;;;;30.70;19.17;;;1.50;99.90;;;;;;4993942;28;20440;-75
2023/01/21 10:18:56;;;;;;;34.10;20.17;;;1.50;99.90;;;;;;5028444;28;20456;-76
2023/01/21 10:21:37;;;;;;;29.50;20.53;;;1.40;99.90;;;;;;5030373;28;20500;-76
2023/01/21 10:24:10;;;;;;;29.37;21.03;;;1.60;99.90;;;;;;5029626;28;20490;-76
2023/01/21 10:26:36;;;;;;;30.20;18.63;;;1.60;99.90;;;;;;5012963;28;20413;-75
2023/01/21 10:29:02;;;;;;;32.80;21.20;;;1.60;99.90;;;;;;5015152;28;20512;-77
2023/01/21 10:31:34;;;;;;;33.60;20.00;;;1.40;99.90;;;;;;5011580;28;20289;-76
2023/01/21 10:34:01;;;;;;;34.63;20.70;;;1.40;99.90;;;;;;5037612;28;20463;-76
2023/01/21 10:36:44;;;;;;;27.97;19.13;;;1.60;99.90;;;;;;5020651;28;20393;-76
2023/01/21 10:39:39;;;;;;;35.97;20.47;;;1.60;99.90;;;;;;5031745;28;20562;-76
2023/01/21 10:42:05;;;;;;;35.20;21.50;;;1.60;99.90;;;;;;5024450;28;20429;-76
2023/01/21 10:45:01;;;;;;;32.10;22.00;;;1.80;99.90;;;;;;5021113;28;20460;-76
2023/01/21 10:47:52;;;;;;;36.77;22.83;;;1.60;99.90;;;;;;5004779;28;20253;-78
2023/01/21 10:50:29;;;;;;;36.70;20.87;;;1.80;99.90;;;;;;5016752;28;20440;-78
2023/01/21 10:53:10;;;;;;;32.07;20.67;;;1.80;99.90;;;;;;5017070;28;20512;-77
2023/01/21 10:56:02;;;;;;;35.43;21.90;;;1.80;99.90;;;;;;5034814;28;20469;-78
2023/01/21 10:58:34;;;;;;;35.00;22.43;;;1.80;99.90;;;;;;5035587;28;20391;-78
2023/01/21 11:01:05;;;;;;;36.20;22.50;;;1.80;99.90;;;;;;5035242;28;20562;-77
2023/01/21 11:03:37;;;;;;;35.63;21.70;;;1.90;99.90;;;;;;5016695;28;20473;-78
2023/01/21 11:06:07;;;;;;;36.90;21.07;;;1.70;99.90;;;;;;5042224;28;20420;-76
2023/01/21 11:08:33;;;;;;;36.90;21.77;;;2.00;99.90;;;;;;5034941;28;20420;-78
2023/01/21 11:10:59;;;;;;;35.97;21.37;;;1.90;99.90;;;;;;5031006;28;20507;-76
2023/01/21 11:13:25;;;;;;;35.47;20.53;;;1.90;99.90;;;;;;5028299;28;20772;-78
2023/01/21 11:15:53;;;;;;;32.03;19.00;;;1.90;99.90;;;;;;5037997;28;20466;-77
2023/01/21 11:18:25;;;;;;;31.57;19.80;;;2.10;99.90;;;;;;5017175;28;20448;-76
2023/01/21 11:20:54;;;;;;;34.37;20.53;;;2.10;99.90;;;;;;5000592;28;20567;-78
2023/01/21 11:23:30;;;;;;;33.67;20.57;;;2.10;99.90;;;;;;5018252;28;20514;-78
2023/01/21 11:26:14;;;;;;;31.00;18.60;;;2.20;99.90;;;;;;5011529;28;20433;-76
2023/01/21 11:28:40;;;;;;;37.13;20.57;;;2.00;99.90;;;;;;5033952;28;20448;-78
2023/01/21 11:31:22;;;;;;;33.87;20.80;;;2.20;99.90;;;;;;5033866;28;20417;-78
2023/01/21 11:33:48;;;;;;;37.67;19.90;;;2.00;99.90;;;;;;5017268;28;20206;-78
2023/01/21 11:36:19;;;;;;;33.87;19.90;;;2.00;99.90;;;;;;5016603;28;20426;-78
2023/01/21 11:38:58;;;;;;;34.10;20.60;;;2.00;99.90;;;;;;5004064;28;20798;-78
2023/01/21 11:41:24;;;;;;;35.63;20.00;;;2.20;99.90;;;;;;5036018;28;20924;-76
2023/01/21 11:44:06;;;;;;;36.97;20.83;;;2.30;99.90;;;;;;5015067;28;20486;-77
2023/01/21 11:46:38;;;;;;;34.60;20.47;;;2.00;99.90;;;;;;5028912;28;20188;-78
2023/01/21 11:49:07;;;;;;;36.33;20.63;;;2.20;99.90;;;;;;5045987;28;20471;-77
2023/01/21 11:51:40;;;;;;;35.77;19.57;;;2.10;99.90;;;;;;5041153;28;20773;-76
2023/01/21 11:54:16;;;;;;;37.80;20.17;;;2.10;99.90;;;;;;5036678;28;20506;-77
2023/01/21 11:56:52;;;;;;;36.17;21.20;;;2.20;99.90;;;;;;5037033;28;20816;-76
2023/01/21 11:59:42;;;;;;;35.90;19.30;;;2.10;99.90;;;;;;5054340;28;20459;-77
2023/01/21 12:02:24;;;;;;;33.60;20.93;;;2.20;99.90;;;;;;5055175;28;20397;-78
2023/01/21 12:05:21;;;;;;;37.03;20.13;;;2.30;99.90;;;;;;5036278;28;20436;-78
2023/01/21 12:07:49;;;;;;;40.60;20.20;;;2.20;99.90;;;;;;5005814;28;20445;-76
2023/01/21 12:10:14;;;;;;;39.47;21.07;;;2.10;99.90;;;;;;5054409;28;20499;-77
2023/01/21 12:13:01;;;;;;;34.33;19.47;;;2.20;99.90;;;;;;5054360;28;20562;-78
2023/01/21 12:16:04;;;;;;;32.53;19.27;;;2.40;99.90;;;;;;5035534;28;20185;-76
2023/01/21 12:18:45;;;;;;;36.37;20.87;;;2.30;99.90;;;;;;5054287;28;20415;-78
2023/01/21 12:21:36;;;;;;;36.67;18.73;;;2.40;99.90;;;;;;5053678;28;20450;-78
2023/01/21 12:24:37;;;;;;;37.43;19.87;;;2.20;99.90;;;;;;5053661;28;20881;-77
2023/01/21 12:27:10;;;;;;;36.37;20.07;;;2.20;99.90;;;;;;5053579;28;20412;-75
2023/01/21 12:30:10;;;;;;;31.77;18.97;;;2.40;99.90;;;;;;5053628;28;20417;-77
2023/01/21 12:32:49;;;;;;;31.87;18.50;;;2.30;99.90;;;;;;5009263;28;20490;-76
2023/01/21 12:35:25;;;;;;;32.70;19.67;;;2.30;99.90;;;;;;5033460;28;20401;-78
2023/01/21 12:37:57;;;;;;;32.00;18.43;;;2.10;99.90;;;;;;5033618;28;21082;-78
2023/01/21 12:40:42;;;;;;;33.43;18.77;;;2.20;99.90;;;;;;5013820;28;21039;-77
2023/01/21 12:43:19;;;;;;;34.57;19.43;;;2.30;99.90;;;;;;5015704;28;20456;-78
2023/01/21 12:45:52;;;;;;;32.10;19.27;;;2.20;99.90;;;;;;5015529;28;20409;-79
2023/01/21 12:48:26;;;;;;;34.13;19.47;;;2.20;99.90;;;;;;5032786;28;20869;-78
2023/01/21 12:51:00;;;;;;;33.50;18.47;;;2.40;99.90;;;;;;5015099;28;20413;-78
2023/01/21 12:53:41;;;;;;;32.23;18.80;;;2.30;99.90;;;;;;5015163;28;20460;-76
2023/01/21 12:56:08;;;;;;;35.77;20.00;;;2.30;99.90;;;;;;4999441;28;20432;-77
2023/01/21 12:58:44;;;;;;;30.67;17.40;;;2.50;99.90;;;;;;5032824;28;20929;-78
2023/01/21 13:01:18;;;;;;;33.30;20.57;;;2.30;99.90;;;;;;5015082;28;20425;-76
2023/01/21 13:03:54;;;;;;;36.17;20.17;;;2.20;99.90;;;;;;5032918;28;20429;-77